Vivian, Louisiana
Current Conditions -  °F | °C
As of 10:53 PM on Friday 21 Nov 2014 (Local Time) from KDTN Reporting Station
Overcast Overcast  
Wind Chill: 55°   Ceiling: 4600
Heat Index: 55°   Visibility: 10mi
Dew Point: 50°   Wind: 3mph
Humidity: 83%   Direction: 110°ESE
Pressure: 30.21"   Gusts: NA
Location:  32.87°N, 93.99°W
Report Text: KDTN 220453Z AUTO 11003KT 10SM OVC046 13/10 A3021 RMK AO2 SLP229 T01280100
Loading
Personal Weather Stations






























Interactive Weather Map New forecast layout! Learn more

10-Day Weather Forecast

Advertisements
Track Severe Weather on mobile